Time;durP1;ratioP1;P1;durP2;ratioP2;P2;SDS_P1;SDS_P2;PMS_P1;PMS_P2;Temp;Humidity;BMP_temperature;BMP_pressure;BME280_temperature;BME280_humidity;BME280_pressure;Samples;Min_cycle;Max_cycle;Signal;HPM_P1;HPM_P2
2023/09/06 00:00:52;;;;;;;3.22;1.58;;;;;;;26.65;34.17;96636.91;5078081;28;20473;-27
2023/09/06 00:03:18;;;;;;;3.60;1.90;;;;;;;26.61;34.20;96644.03;5088085;28;20025;-27
2023/09/06 00:05:44;;;;;;;2.53;1.75;;;;;;;26.62;34.64;96631.63;5081738;28;20106;-26
2023/09/06 00:08:12;;;;;;;4.05;1.75;;;;;;;26.75;34.29;96632.44;5082805;28;20048;-27
2023/09/06 00:10:38;;;;;;;3.42;1.90;;;;;;;26.70;34.75;96627.72;5080787;28;20111;-27
2023/09/06 00:13:06;;;;;;;2.25;1.65;;;;;;;26.65;34.28;96625.03;5082047;28;20161;-27
2023/09/06 00:15:31;;;;;;;2.20;1.83;;;;;;;26.63;34.56;96631.13;5081910;28;20020;-29
2023/09/06 00:17:57;;;;;;;2.95;1.75;;;;;;;26.72;34.02;96629.97;5082003;28;20123;-27
2023/09/06 00:20:25;;;;;;;2.85;1.55;;;;;;;26.45;34.95;96631.91;5082719;28;20049;-27
2023/09/06 00:22:58;;;;;;;2.22;1.63;;;;;;;26.68;34.65;96637.88;5080351;28;20035;-27
2023/09/06 00:25:24;;;;;;;;;;;;;;;26.53;34.39;96626.47;5082332;28;20028;-27
2023/09/06 00:27:50;;;;;;;2.80;1.60;;;;;;;26.58;34.50;96626.38;5081491;28;20341;-27
2023/09/06 00:30:18;;;;;;;2.65;1.80;;;;;;;26.72;34.46;96624.41;5081402;28;20081;-27
2023/09/06 00:32:45;;;;;;;2.45;1.70;;;;;;;26.79;34.14;96624.53;5081318;28;20429;-26
2023/09/06 00:35:10;;;;;;;3.78;1.60;;;;;;;26.65;34.94;96625.78;5080903;28;20481;-27
2023/09/06 00:37:37;;;;;;;3.17;1.90;;;;;;;26.60;34.65;96634.19;5073914;28;20042;-27
2023/09/06 00:40:12;;;;;;;4.15;1.73;;;;;;;26.62;34.88;96632.38;5085140;28;20031;-27
2023/09/06 00:42:38;;;;;;;2.67;1.58;;;;;;;26.59;34.53;96641.78;5076265;28;20098;-27
2023/09/06 00:45:04;;;;;;;3.00;1.48;;;;;;;26.62;34.79;96637.19;5084751;28;20031;-27
2023/09/06 00:47:30;;;;;;;2.25;2.00;;;;;;;26.67;34.47;96634.34;5084520;28;20381;-26
2023/09/06 00:49:55;;;;;;;4.53;1.92;;;;;;;26.56;34.44;96633.78;5076242;28;20500;-27
2023/09/06 00:52:21;;;;;;;3.30;2.05;;;;;;;26.50;34.75;96622.72;5080051;28;20165;-27
2023/09/06 00:54:48;;;;;;;2.17;1.50;;;;;;;26.34;34.85;96637.59;5081109;28;20027;-28
2023/09/06 00:57:13;;;;;;;3.35;1.80;;;;;;;26.52;34.83;96628.50;5084416;28;20377;-27
2023/09/06 00:59:40;;;;;;;3.88;1.65;;;;;;;26.46;35.11;96627.81;5084412;28;20020;-27
2023/09/06 01:02:05;;;;;;;2.83;1.50;;;;;;;26.34;35.19;96632.03;5080491;28;20028;-26
2023/09/06 01:04:31;;;;;;;2.08;1.50;;;;;;;26.46;34.98;96631.34;5080583;28;20028;-27
2023/09/06 01:06:59;;;;;;;2.97;1.70;;;;;;;26.36;35.09;96629.50;5081084;28;20061;-27
2023/09/06 01:09:24;;;;;;;3.60;1.67;;;;;;;26.57;35.26;96638.06;5083966;28;20094;-28
2023/09/06 01:11:50;;;;;;;2.95;1.60;;;;;;;26.38;34.94;96633.25;5084164;28;20040;-28
2023/09/06 01:14:15;;;;;;;2.08;1.60;;;;;;;26.38;35.21;96633.25;5081721;28;20108;-28
2023/09/06 01:16:48;;;;;;;3.75;1.63;;;;;;;26.54;35.29;96631.50;5084167;28;20020;-27
2023/09/06 01:19:14;;;;;;;;;;;;;;;26.50;35.54;96635.88;5083986;28;20457;-27
2023/09/06 01:22:01;;;;;;;3.63;1.70;;;;;;;26.53;35.61;96634.81;5088436;28;19912;-27
2023/09/06 01:24:29;;;;;;;5.88;1.83;;;;;;;26.40;35.59;96629.94;5081773;28;20466;-27
2023/09/06 01:26:55;;;;;;;2.95;1.52;;;;;;;26.41;35.49;96639.78;5084205;28;20028;-29
2023/09/06 01:29:20;;;;;;;3.97;2.00;;;;;;;26.27;35.97;96627.06;5075968;28;20024;-27
2023/09/06 01:31:46;;;;;;;2.50;1.67;;;;;;;26.29;35.68;96622.50;5081103;28;20051;-27
2023/09/06 01:34:12;;;;;;;4.75;1.70;;;;;;;26.41;35.66;96621.06;5080416;28;20021;-27
2023/09/06 01:36:37;;;;;;;3.30;1.80;;;;;;;26.56;35.51;96622.63;5080767;28;20020;-26
2023/09/06 01:39:06;;;;;;;8.60;2.10;;;;;;;26.65;35.33;96625.03;5080378;28;20437;-26
2023/09/06 01:41:31;;;;;;;3.05;1.92;;;;;;;26.39;36.19;96625.66;5080255;28;20045;-27
2023/09/06 01:43:57;;;;;;;2.63;1.80;;;;;;;26.49;35.88;96621.22;5080171;28;20439;-27
2023/09/06 01:46:25;;;;;;;3.38;1.80;;;;;;;26.35;36.07;96603.72;5078313;28;20020;-27
2023/09/06 01:48:50;;;;;;;2.75;1.85;;;;;;;26.38;36.49;96618.59;5082763;28;20021;-26
2023/09/06 01:51:16;;;;;;;2.42;1.92;;;;;;;26.47;36.13;96620.97;5083858;28;20465;-27
2023/09/06 01:53:42;;;;;;;4.85;2.00;;;;;;;26.30;36.73;96612.16;5083345;28;20020;-27
2023/09/06 01:56:08;;;;;;;2.85;1.73;;;;;;;26.30;36.96;96618.47;5075539;28;20016;-27
2023/09/06 01:58:37;;;;;;;1.83;1.60;;;;;;;26.24;37.00;96608.66;5078175;28;20020;-27
2023/09/06 02:01:07;;;;;;;3.50;1.42;;;;;;;26.32;37.12;96609.59;5087837;28;20438;-27
2023/09/06 02:03:36;;;;;;;2.65;1.90;;;;;;;26.46;36.53;96611.88;5079917;28;20374;-27
2023/09/06 02:06:01;;;;;;;2.42;1.90;;;;;;;26.28;36.84;96607.13;5087513;28;20445;-27
2023/09/06 02:08:27;;;;;;;3.13;1.90;;;;;;;26.31;37.25;96605.31;5076388;28;20055;-28
2023/09/06 02:10:52;;;;;;;4.45;1.92;;;;;;;26.30;36.89;96609.38;5077143;28;20020;-27
2023/09/06 02:13:17;;;;;;;2.47;1.80;;;;;;;26.36;37.29;96608.00;5079742;28;20080;-26
2023/09/06 02:15:43;;;;;;;2.67;1.98;;;;;;;26.30;37.11;96610.13;5073397;28;20424;-29
2023/09/06 02:18:10;;;;;;;2.22;2.03;;;;;;;26.41;36.76;96606.41;5080469;28;20025;-27
2023/09/06 02:20:39;;;;;;;3.10;1.80;;;;;;;26.55;36.97;96599.63;5080347;28;20367;-28
2023/09/06 02:23:05;;;;;;;3.17;1.80;;;;;;;26.37;37.22;96594.84;5080366;28;20028;-27
2023/09/06 02:25:31;;;;;;;4.57;2.00;;;;;;;26.55;36.78;96596.09;5081583;28;20028;-27
2023/09/06 02:27:58;;;;;;;5.45;2.10;;;;;;;26.38;37.07;96588.00;5078936;28;20025;-27
2023/09/06 02:30:23;;;;;;;5.13;2.47;;;;;;;26.43;37.40;96587.19;5080201;28;20035;-27
2023/09/06 02:32:49;;;;;;;2.75;2.08;;;;;;;26.15;37.77;96589.59;5079711;28;20107;-27
2023/09/06 02:35:15;;;;;;;3.08;2.00;;;;;;;26.30;37.81;96584.34;5080026;28;20020;-28
2023/09/06 02:37:41;;;;;;;2.92;1.95;;;;;;;26.36;38.02;96587.78;5079809;28;20086;-27
2023/09/06 02:40:14;;;;;;;4.32;2.00;;;;;;;26.15;38.26;96590.34;5079980;28;20021;-29
2023/09/06 02:42:44;;;;;;;3.53;1.88;;;;;;;26.36;38.20;96585.75;5072831;28;20033;-27
2023/09/06 02:45:13;;;;;;;4.13;2.00;;;;;;;26.29;37.91;96583.59;5081837;28;20393;-27
2023/09/06 02:47:49;;;;;;;5.03;2.40;;;;;;;26.22;38.49;96586.19;5075078;28;20036;-29
2023/09/06 02:50:16;;;;;;;4.78;2.33;;;;;;;26.36;38.17;96582.97;5079459;28;20020;-27
2023/09/06 02:52:45;;;;;;;4.63;2.10;;;;;;;26.06;39.06;96569.25;5079608;28;20096;-27
2023/09/06 02:55:13;;;;;;;3.92;2.03;;;;;;;26.25;38.96;96580.31;5079863;28;20090;-28
2023/09/06 02:57:43;;;;;;;5.80;2.65;;;;;;;26.29;38.89;96572.47;5080214;28;20024;-27
2023/09/06 03:00:23;;;;;;;4.20;2.30;;;;;;;26.43;38.65;96565.69;5085439;28;20028;-27
2023/09/06 03:02:48;;;;;;;3.30;2.40;;;;;;;26.24;38.96;96569.72;5086911;28;20016;-27
2023/09/06 03:05:17;;;;;;;3.75;2.20;;;;;;;26.24;39.29;96570.47;5085064;28;20381;-27
2023/09/06 03:07:45;;;;;;;5.40;2.75;;;;;;;26.29;39.13;96563.38;5080843;28;20077;-26
2023/09/06 03:10:11;;;;;;;4.95;2.83;;;;;;;26.30;39.13;96565.63;5084036;28;20111;-27
2023/09/06 03:12:38;;;;;;;3.67;2.53;;;;;;;26.31;38.81;96555.25;5083157;28;20024;-26
2023/09/06 03:15:08;;;;;;;4.80;2.70;;;;;;;26.31;39.22;96560.81;5083354;28;20032;-27
2023/09/06 03:17:36;;;;;;;2.80;2.50;;;;;;;26.34;39.02;96565.31;5086235;28;20028;-29
2023/09/06 03:20:18;;;;;;;3.00;2.33;;;;;;;26.39;38.88;96561.69;5087130;28;20020;-26
2023/09/06 03:22:46;;;;;;;5.28;2.85;;;;;;;26.15;39.92;96561.78;5083069;28;20017;-28
2023/09/06 03:25:14;;;;;;;4.22;2.30;;;;;;;26.32;39.25;96565.09;5083395;28;20103;-28
2023/09/06 03:27:41;;;;;;;4.30;3.00;;;;;;;26.24;39.91;96558.63;5078394;28;20028;-27
2023/09/06 03:30:08;;;;;;;4.35;2.65;;;;;;;26.40;39.22;96568.78;5085936;28;20020;-27
2023/09/06 03:32:33;;;;;;;5.25;2.97;;;;;;;26.25;39.41;96571.25;5083964;28;20103;-28
2023/09/06 03:34:59;;;;;;;4.63;2.53;;;;;;;26.33;39.92;96563.84;5082723;28;20059;-26
2023/09/06 03:37:24;;;;;;;5.15;2.60;;;;;;;26.36;39.69;96557.19;5082604;28;20104;-27
2023/09/06 03:39:53;;;;;;;4.55;2.83;;;;;;;26.17;40.20;96553.69;5082858;28;20388;-27
2023/09/06 03:42:19;;;;;;;4.88;2.78;;;;;;;26.14;40.13;96563.81;5082208;28;20055;-27
2023/09/06 03:44:46;;;;;;;4.25;2.80;;;;;;;26.27;39.72;96560.34;5082809;28;20016;-27
2023/09/06 03:47:15;;;;;;;5.95;2.90;;;;;;;26.11;40.35;96562.84;5086712;28;20027;-27
2023/09/06 03:49:43;;;;;;;4.32;2.80;;;;;;;26.09;40.59;96562.59;5085188;28;20047;-27
2023/09/06 03:52:10;;;;;;;6.95;3.28;;;;;;;26.15;40.20;96567.34;5076701;28;20020;-29
2023/09/06 03:54:37;;;;;;;5.25;2.90;;;;;;;26.22;39.98;96569.50;5084938;28;20347;-26
2023/09/06 03:57:12;;;;;;;3.97;2.83;;;;;;;26.15;40.16;96556.22;5075949;28;20514;-28
2023/09/06 03:59:40;;;;;;;5.40;3.45;;;;;;;26.20;40.11;96563.75;5082143;28;20035;-27
2023/09/06 04:02:13;;;;;;;5.90;3.10;;;;;;;26.28;40.00;96561.88;5082288;28;20024;-29
2023/09/06 04:04:39;;;;;;;4.70;2.33;;;;;;;26.27;40.44;96557.56;5080590;28;20020;-28
2023/09/06 04:07:07;;;;;;;4.50;2.85;;;;;;;26.27;40.28;96558.31;5084370;28;20029;-27
2023/09/06 04:09:37;;;;;;;3.55;3.08;;;;;;;25.95;40.58;96561.06;5081073;28;20112;-27
2023/09/06 04:12:05;;;;;;;3.38;3.08;;;;;;;26.09;41.03;96556.28;5081618;28;20020;-27
2023/09/06 04:14:35;;;;;;;5.28;3.30;;;;;;;26.34;40.05;96554.19;5085184;28;20419;-27
2023/09/06 04:17:01;;;;;;;4.35;3.17;;;;;;;26.18;40.46;96555.94;5085614;28;20029;-27
2023/09/06 04:19:26;;;;;;;6.43;3.35;;;;;;;26.01;40.63;96558.94;5082630;28;20024;-27
2023/09/06 04:21:51;;;;;;;5.20;3.80;;;;;;;25.99;40.87;96564.25;5079634;28;20016;-28
2023/09/06 04:24:20;;;;;;;3.92;3.13;;;;;;;26.17;40.98;96565.53;5084995;28;20024;-27
2023/09/06 04:26:46;;;;;;;5.78;3.58;;;;;;;26.20;40.42;96556.16;5081786;28;20066;-27
2023/09/06 04:29:11;;;;;;;3.50;3.13;;;;;;;25.96;41.12;96562.56;5081682;28;20028;-28
2023/09/06 04:31:37;;;;;;;7.60;3.30;;;;;;;26.29;40.85;96568.94;5082611;28;20027;-28
2023/09/06 04:34:04;;;;;;;4.47;2.97;;;;;;;26.14;40.81;96558.25;5084930;28;20024;-27
2023/09/06 04:36:29;;;;;;;3.22;2.90;;;;;;;25.98;41.21;96562.00;5075526;28;20059;-27
2023/09/06 04:38:56;;;;;;;3.88;2.97;;;;;;;26.05;41.28;96564.19;5081250;28;20103;-27
2023/09/06 04:41:21;;;;;;;4.15;3.08;;;;;;;26.01;41.48;96555.41;5081142;28;20098;-27
2023/09/06 04:43:47;;;;;;;8.43;3.20;;;;;;;26.18;41.17;96555.19;5081175;28;20012;-27
2023/09/06 04:46:12;;;;;;;5.00;3.20;;;;;;;26.03;41.10;96564.72;5081187;28;20016;-27
2023/09/06 04:48:39;;;;;;;3.58;2.92;;;;;;;26.09;41.04;96559.06;5081481;28;20051;-28
2023/09/06 04:51:05;;;;;;;3.58;2.80;;;;;;;26.04;41.30;96557.91;5081793;28;20052;-29
2023/09/06 04:53:30;;;;;;;4.40;3.10;;;;;;;25.90;42.07;96569.47;5079914;28;20099;-27
2023/09/06 04:55:56;;;;;;;3.63;2.65;;;;;;;26.13;41.44;96565.84;5075916;28;20096;-31
2023/09/06 04:58:21;;;;;;;5.82;3.00;;;;;;;26.06;41.42;96574.03;5084021;28;20465;-27
2023/09/06 05:00:47;;;;;;;6.18;3.20;;;;;;;25.80;41.88;96565.56;5077214;28;20023;-27
2023/09/06 05:03:17;;;;;;;8.23;3.60;;;;;;;26.09;41.34;96570.19;5083736;28;20466;-27
2023/09/06 05:05:45;;;;;;;4.32;3.00;;;;;;;26.11;41.61;96573.94;5078771;28;20028;-27
2023/09/06 05:08:10;;;;;;;6.35;3.75;;;;;;;26.10;41.58;96566.88;5080368;28;20169;-27
2023/09/06 05:10:36;;;;;;;7.30;3.60;;;;;;;26.06;41.34;96577.56;5079708;28;20103;-27
2023/09/06 05:13:05;;;;;;;3.30;3.00;;;;;;;25.90;41.60;96567.44;5080463;28;20025;-27
2023/09/06 05:15:30;;;;;;;4.45;3.35;;;;;;;26.15;41.10;96567.34;5080592;28;20023;-27
2023/09/06 05:17:56;;;;;;;4.72;3.38;;;;;;;26.16;41.40;96569.59;5080478;28;20024;-26
2023/09/06 05:20:27;;;;;;;5.35;3.47;;;;;;;26.12;41.49;96575.47;5081449;28;20016;-27
2023/09/06 05:22:57;;;;;;;3.90;3.13;;;;;;;25.98;41.84;96578.69;5083680;28;20052;-26
2023/09/06 05:25:23;;;;;;;5.35;3.35;;;;;;;26.02;41.49;96584.69;5082514;28;20430;-27
2023/09/06 05:27:50;;;;;;;9.10;3.53;;;;;;;26.12;41.34;96586.56;5083632;28;20028;-27
2023/09/06 05:30:16;;;;;;;5.30;3.88;;;;;;;26.20;41.43;96581.19;5084135;28;20020;-27
2023/09/06 05:32:42;;;;;;;5.57;3.88;;;;;;;26.20;40.95;96586.72;5075511;28;20499;-27
2023/09/06 05:35:08;;;;;;;5.65;3.83;;;;;;;26.11;41.11;96579.50;5078945;28;20101;-27
2023/09/06 05:37:34;;;;;;;4.32;3.90;;;;;;;26.19;41.04;96588.00;5080693;28;20070;-27
2023/09/06 05:39:59;;;;;;;5.93;3.47;;;;;;;25.74;41.69;96582.28;5083855;28;20032;-26
2023/09/06 05:42:25;;;;;;;5.28;3.95;;;;;;;26.16;41.26;96591.09;5076627;28;20049;-27
2023/09/06 05:44:50;;;;;;;7.00;3.60;;;;;;;25.94;41.41;96589.38;5080477;28;20101;-27
2023/09/06 05:47:16;;;;;;;5.25;3.63;;;;;;;26.00;41.11;96582.44;5085075;28;20023;-27
2023/09/06 05:49:41;;;;;;;5.70;3.50;;;;;;;26.02;41.25;96582.69;5083065;28;20031;-27
2023/09/06 05:52:07;;;;;;;4.65;3.63;;;;;;;26.10;41.08;96578.00;5080641;28;20020;-27
2023/09/06 05:54:32;;;;;;;5.03;3.83;;;;;;;26.05;41.08;96586.44;5080210;28;20024;-28
2023/09/06 05:56:58;;;;;;;5.03;4.30;;;;;;;26.15;41.24;96592.38;5080699;28;20058;-26
2023/09/06 05:59:23;;;;;;;7.22;3.95;;;;;;;26.01;41.24;96592.28;5083576;28;20016;-27
2023/09/06 06:01:49;;;;;;;4.88;3.83;;;;;;;26.05;41.32;96589.97;5077087;28;20494;-26
2023/09/06 06:04:15;;;;;;;5.45;3.85;;;;;;;26.15;41.14;96595.91;5080503;28;20020;-27
2023/09/06 06:06:41;;;;;;;5.95;3.67;;;;;;;25.97;41.44;96593.84;5071274;28;20466;-28
2023/09/06 06:09:11;;;;;;;5.30;3.67;;;;;;;26.10;41.56;96608.56;5080425;28;20028;-28
2023/09/06 06:11:37;;;;;;;5.72;4.13;;;;;;;26.20;41.27;96595.06;5086057;28;20027;-28
2023/09/06 06:14:04;;;;;;;5.82;3.85;;;;;;;26.09;41.13;96597.97;5080051;28;20032;-27
2023/09/06 06:16:30;;;;;;;4.60;3.95;;;;;;;26.25;41.19;96596.25;5087617;28;20016;-27
2023/09/06 06:18:56;;;;;;;6.20;4.03;;;;;;;26.19;40.93;96601.91;5079204;28;20093;-27
2023/09/06 06:21:22;;;;;;;4.75;3.90;;;;;;;26.14;41.22;96602.72;5075475;28;20031;-27
2023/09/06 06:23:48;;;;;;;5.63;3.63;;;;;;;26.20;40.91;96602.66;5079295;28;20060;-28
2023/09/06 06:26:15;;;;;;;5.35;3.80;;;;;;;26.04;41.37;96594.03;5079926;28;20496;-27
2023/09/06 06:28:40;;;;;;;4.32;3.42;;;;;;;26.15;41.07;96592.38;5075339;28;20028;-27
2023/09/06 06:31:06;;;;;;;4.72;3.95;;;;;;;26.16;41.38;96588.31;5078249;28;20020;-27
2023/09/06 06:33:32;;;;;;;5.45;4.47;;;;;;;26.13;41.49;96588.06;5081907;28;20046;-27
2023/09/06 06:35:58;;;;;;;6.75;4.13;;;;;;;26.09;41.54;96587.63;5083799;28;20028;-27
2023/09/06 06:38:23;;;;;;;4.95;4.45;;;;;;;26.15;41.10;96589.59;5083741;28;20420;-27
2023/09/06 06:40:49;;;;;;;7.47;4.50;;;;;;;26.18;41.31;96594.84;5083981;28;20048;-27
2023/09/06 06:43:14;;;;;;;5.43;4.22;;;;;;;26.06;41.16;96583.13;5081598;28;20030;-29
2023/09/06 06:45:46;;;;;;;6.03;4.20;;;;;;;26.26;40.73;96594.97;5084745;28;20115;-27
2023/09/06 06:48:12;;;;;;;4.63;4.22;;;;;;;26.23;41.26;96601.59;5080551;28;20016;-27
2023/09/06 06:50:38;;;;;;;5.30;4.32;;;;;;;26.18;40.78;96583.72;5086606;28;20052;-27
2023/09/06 06:53:03;;;;;;;4.88;3.92;;;;;;;26.19;41.23;96590.03;5078173;28;20067;-28
2023/09/06 06:55:29;;;;;;;6.28;4.18;;;;;;;26.11;41.58;96585.06;5080927;28;20021;-27
2023/09/06 06:57:54;;;;;;;5.30;4.80;;;;;;;26.21;41.05;96588.22;5084139;28;20485;-28
2023/09/06 07:00:20;;;;;;;5.57;4.55;;;;;;;26.24;41.38;96584.38;5086537;28;20473;-27
2023/09/06 07:02:45;;;;;;;5.18;4.43;;;;;;;26.42;40.79;96599.59;5086527;28;20470;-27
2023/09/06 07:05:12;;;;;;;5.47;4.38;;;;;;;26.15;41.34;96600.69;5084905;28;20381;-27
2023/09/06 07:07:38;;;;;;;4.85;4.32;;;;;;;26.26;41.65;96594.97;5081705;28;20028;-28
2023/09/06 07:10:06;;;;;;;4.90;4.40;;;;;;;26.37;41.03;96592.81;5082777;28;20032;-28
2023/09/06 07:12:31;;;;;;;8.90;4.60;;;;;;;26.41;40.88;96592.50;5083193;28;20020;-27
2023/09/06 07:14:57;;;;;;;10.75;4.40;;;;;;;26.18;41.65;96594.09;5082576;28;20027;-28
2023/09/06 07:17:22;;;;;;;4.63;4.03;;;;;;;26.33;41.21;96589.59;5084438;28;20021;-28
2023/09/06 07:19:47;;;;;;;7.00;4.30;;;;;;;26.40;41.15;96588.22;5082921;28;20024;-27
2023/09/06 07:22:13;;;;;;;6.00;4.15;;;;;;;26.51;41.12;96585.28;5073837;28;20033;-27
2023/09/06 07:24:38;;;;;;;5.82;4.75;;;;;;;26.41;41.15;96600.88;5090327;28;20024;-27
2023/09/06 07:27:04;;;;;;;5.70;4.22;;;;;;;26.37;41.58;96584.47;5075863;28;20016;-26
2023/09/06 07:29:30;;;;;;;6.70;4.03;;;;;;;26.54;41.31;96584.22;5083309;28;20025;-27
2023/09/06 07:31:57;;;;;;;5.40;4.32;;;;;;;26.37;41.30;96597.63;5082906;28;20025;-27
2023/09/06 07:34:22;;;;;;;5.32;4.40;;;;;;;26.52;41.32;96602.72;5082752;28;20021;-27
2023/09/06 07:36:48;;;;;;;5.95;4.40;;;;;;;26.45;41.19;96598.53;5082795;28;20020;-27
2023/09/06 07:39:13;;;;;;;5.70;4.40;;;;;;;26.51;41.04;96607.53;5082769;28;20024;-27
2023/09/06 07:41:39;;;;;;;5.97;4.60;;;;;;;26.49;40.90;96590.63;5082650;28;20044;-27
2023/09/06 07:44:04;;;;;;;6.82;4.57;;;;;;;26.82;40.35;96606.03;5085830;28;20020;-27
2023/09/06 07:46:30;;;;;;;6.85;4.38;;;;;;;26.68;40.60;96599.69;5085013;28;20016;-26
2023/09/06 07:48:56;;;;;;;6.63;4.93;;;;;;;26.79;40.58;96623.78;5084474;28;20028;-26
2023/09/06 07:51:22;;;;;;;4.88;4.32;;;;;;;26.94;40.08;96618.53;5085508;28;20023;-27
2023/09/06 07:53:47;;;;;;;7.53;4.80;;;;;;;26.98;39.70;96607.81;5077319;28;20396;-27
2023/09/06 07:56:13;;;;;;;4.88;4.38;;;;;;;26.82;39.79;96609.56;5083065;28;20455;-26
2023/09/06 07:58:38;;;;;;;5.18;4.68;;;;;;;26.78;40.00;96614.69;5081134;28;20023;-27
2023/09/06 08:01:04;;;;;;;6.55;4.97;;;;;;;26.82;39.81;96604.00;5076655;28;20028;-26
2023/09/06 08:03:29;;;;;;;6.43;4.85;;;;;;;27.16;39.55;96603.47;5087280;28;20013;-26
2023/09/06 08:05:55;;;;;;;5.40;4.65;;;;;;;26.76;40.12;96603.34;5089550;28;20032;-27
2023/09/06 08:08:20;;;;;;;6.18;4.63;;;;;;;27.04;39.62;96611.25;5077223;28;20056;-27
2023/09/06 08:10:46;;;;;;;5.00;4.50;;;;;;;26.90;39.76;96606.16;5080026;28;20019;-26
2023/09/06 08:13:12;;;;;;;5.90;4.72;;;;;;;27.08;39.63;96597.00;5082644;28;20020;-26
2023/09/06 08:15:37;;;;;;;5.55;4.93;;;;;;;27.17;39.26;96607.75;5085060;28;20020;-26
2023/09/06 08:18:03;;;;;;;5.72;4.88;;;;;;;27.02;39.32;96597.13;5085063;28;20024;-26
2023/09/06 08:20:30;;;;;;;6.30;4.47;;;;;;;27.09;39.64;96601.28;5076383;28;20130;-27
2023/09/06 08:22:56;;;;;;;5.30;4.80;;;;;;;27.17;39.17;96597.34;5078545;28;20385;-26
2023/09/06 08:25:21;;;;;;;5.10;4.60;;;;;;;27.16;39.22;96600.69;5082101;28;20023;-27
2023/09/06 08:27:49;;;;;;;5.78;4.72;;;;;;;27.25;38.83;96603.03;5081685;28;20120;-27
2023/09/06 08:30:16;;;;;;;7.97;5.07;;;;;;;27.41;38.83;96604.78;5073267;28;20052;-27
2023/09/06 08:32:43;;;;;;;5.18;4.70;;;;;;;27.35;38.72;96606.13;5081740;28;20024;-27
2023/09/06 08:35:11;;;;;;;7.93;5.03;;;;;;;27.49;38.53;96605.63;5081882;28;20085;-27
2023/09/06 08:37:37;;;;;;;6.22;4.90;;;;;;;27.41;38.54;96599.19;5074774;28;20730;-27
2023/09/06 08:40:06;;;;;;;5.20;4.70;;;;;;;27.33;38.50;96603.88;5085132;28;20032;-27
2023/09/06 08:42:35;;;;;;;5.63;5.07;;;;;;;27.21;38.35;96602.59;5076543;28;20086;-26
2023/09/06 08:45:03;;;;;;;5.55;4.40;;;;;;;27.31;38.29;96616.88;5084264;28;20043;-26
2023/09/06 08:47:28;;;;;;;5.65;4.63;;;;;;;27.29;38.56;96617.41;5077966;28;20031;-26
2023/09/06 08:49:54;;;;;;;7.28;4.80;;;;;;;27.35;38.79;96620.81;5082948;28;20033;-27
2023/09/06 08:52:20;;;;;;;9.90;5.07;;;;;;;27.40;38.29;96617.19;5080244;28;20024;-27
2023/09/06 08:54:48;;;;;;;7.45;5.53;;;;;;;27.53;38.09;96617.19;5079971;28;20054;-26
2023/09/06 08:57:14;;;;;;;6.47;4.85;;;;;;;27.36;38.01;96602.06;5084079;28;20012;-27
2023/09/06 08:59:41;;;;;;;5.88;5.28;;;;;;;27.30;37.97;96599.41;5077816;28;20378;-27
2023/09/06 09:02:12;;;;;;;5.32;4.75;;;;;;;27.28;38.28;96590.09;5080994;28;20027;-26
2023/09/06 09:04:42;;;;;;;5.18;4.60;;;;;;;27.62;37.15;96596.53;5081140;28;20039;-27
2023/09/06 09:07:12;;;;;;;5.68;4.55;;;;;;;27.40;37.92;96599.72;5073057;28;20432;-27
2023/09/06 09:10:02;;;;;;;6.28;5.10;;;;;;;27.65;37.24;96609.41;5084371;28;20008;-27
2023/09/06 09:12:29;;;;;;;6.20;5.50;;;;;;;27.58;37.05;96601.66;5081256;28;20035;-27
2023/09/06 09:14:56;;;;;;;7.45;5.38;;;;;;;27.65;37.34;96614.22;5080855;28;20048;-26
2023/09/06 09:17:23;;;;;;;5.30;4.82;;;;;;;27.49;37.72;96605.63;5073272;28;20074;-26
2023/09/06 09:19:56;;;;;;;5.20;4.50;;;;;;;27.58;37.13;96603.69;5087366;28;20024;-26
2023/09/06 09:22:26;;;;;;;5.30;4.80;;;;;;;27.66;37.08;96601.78;5073627;28;20039;-27
2023/09/06 09:25:10;;;;;;;5.47;4.85;;;;;;;27.59;37.33;96596.84;5077766;28;20442;-26
2023/09/06 09:27:37;;;;;;;5.45;4.70;;;;;;;27.48;37.64;96601.31;5080668;28;20028;-28
2023/09/06 09:30:07;;;;;;;4.90;4.50;;;;;;;27.57;37.34;96597.38;5078561;28;20050;-27
2023/09/06 09:32:32;;;;;;;6.45;4.88;;;;;;;27.73;36.57;96601.88;5075801;28;20027;-26
2023/09/06 09:34:58;;;;;;;5.28;4.78;;;;;;;27.70;36.66;96602.94;5080232;28;20028;-28
2023/09/06 09:37:24;;;;;;;6.88;4.75;;;;;;;27.61;36.67;96605.44;5080641;28;20032;-27
2023/09/06 09:39:49;;;;;;;5.60;4.53;;;;;;;27.77;36.54;96616.25;5079962;28;20117;-26
2023/09/06 09:42:15;;;;;;;5.50;5.00;;;;;;;27.75;36.38;96615.28;5080543;28;20040;-27
2023/09/06 09:44:59;;;;;;;5.93;4.85;;;;;;;27.90;36.05;96615.47;5080858;28;20059;-26
2023/09/06 09:47:26;;;;;;;5.07;4.57;;;;;;;27.72;36.19;96608.00;5086453;28;20373;-28
2023/09/06 09:49:52;;;;;;;4.90;4.45;;;;;;;27.73;36.63;96613.03;5080324;28;20027;-27
2023/09/06 09:52:18;;;;;;;5.05;4.50;;;;;;;27.73;36.53;96601.13;5084635;28;20024;-27
2023/09/06 09:54:47;;;;;;;5.35;4.75;;;;;;;27.82;36.23;96609.78;5083211;28;20031;-26
2023/09/06 09:57:13;;;;;;;5.22;4.72;;;;;;;27.72;36.33;96613.56;5090625;28;20020;-27
2023/09/06 09:59:40;;;;;;;5.25;4.75;;;;;;;27.86;36.48;96621.38;5083533;28;20023;-27
2023/09/06 10:02:09;;;;;;;6.72;4.80;;;;;;;27.78;36.28;96617.75;5076294;28;20434;-27
2023/09/06 10:04:42;;;;;;;7.28;4.93;;;;;;;27.86;36.43;96609.47;5078803;28;20016;-26
2023/09/06 10:07:09;;;;;;;5.55;4.82;;;;;;;27.77;36.44;96598.78;5080085;28;20047;-27
2023/09/06 10:09:38;;;;;;;6.20;4.85;;;;;;;27.81;36.45;96602.00;5083600;28;20016;-28
2023/09/06 10:12:10;;;;;;;5.53;5.00;;;;;;;27.89;36.24;96605.63;5076805;28;20024;-28
2023/09/06 10:14:39;;;;;;;5.25;4.75;;;;;;;27.98;35.75;96590.47;5084843;28;20626;-29
2023/09/06 10:17:05;;;;;;;5.40;4.90;;;;;;;27.96;35.82;96593.06;5084593;28;20380;-26
2023/09/06 10:19:32;;;;;;;7.47;5.20;;;;;;;27.81;35.97;96583.25;5086840;28;20074;-26
2023/09/06 10:22:01;;;;;;;5.63;5.13;;;;;;;27.93;35.90;96586.53;5087548;28;20089;-27
2023/09/06 10:24:34;;;;;;;6.75;5.10;;;;;;;27.84;36.18;96592.53;5092634;28;20070;-28
2023/09/06 10:27:02;;;;;;;6.25;4.70;;;;;;;27.95;35.95;96589.50;5083716;28;20032;-29
2023/09/06 10:29:32;;;;;;;5.57;4.70;;;;;;;27.94;35.90;96588.03;5084123;28;20107;-28
2023/09/06 10:32:04;;;;;;;6.65;4.82;;;;;;;27.95;36.38;96578.38;5081323;28;20080;-27
2023/09/06 10:34:36;;;;;;;7.20;5.03;;;;;;;27.93;35.92;96585.78;5086319;28;20020;-26
2023/09/06 10:37:03;;;;;;;5.47;4.75;;;;;;;27.98;35.95;96577.28;5083909;28;20483;-26
2023/09/06 10:39:31;;;;;;;7.10;5.20;;;;;;;28.03;35.43;96590.38;5083468;28;20029;-27
2023/09/06 10:42:11;;;;;;;5.60;5.10;;;;;;;27.98;35.62;96593.28;5083551;28;20052;-26
2023/09/06 10:44:54;;;;;;;6.65;5.00;;;;;;;28.02;35.62;96591.66;5083875;28;20112;-28
2023/09/06 10:47:32;;;;;;;4.93;4.38;;;;;;;28.11;35.27;96590.44;5084069;28;20437;-27
2023/09/06 10:50:21;;;;;;;5.32;4.82;;;;;;;28.04;35.46;96583.50;5085058;28;20543;-27
2023/09/06 10:52:53;;;;;;;5.78;5.10;;;;;;;28.04;34.92;96591.88;5078225;28;20032;-26
2023/09/06 10:55:19;;;;;;;;;;;;;;;28.05;35.25;96589.84;5080635;28;20138;-27
2023/09/06 10:57:54;;;;;;;5.82;5.00;;;;;;;28.10;35.03;96597.31;5079656;28;20379;-27
2023/09/06 11:00:21;;;;;;;6.05;5.05;;;;;;;28.05;35.15;96592.63;5086626;28;20024;-27
2023/09/06 11:03:09;;;;;;;5.60;5.10;;;;;;;28.12;34.76;96586.38;5079624;28;20378;-27
2023/09/06 11:05:39;;;;;;;10.32;4.95;;;;;;;28.12;35.16;96587.13;5087930;28;20073;-28
2023/09/06 11:08:08;;;;;;;5.80;4.93;;;;;;;28.14;35.10;96590.13;5085017;28;20020;-27
2023/09/06 11:10:34;;;;;;;4.88;4.47;;;;;;;28.18;34.73;96585.00;5083029;28;20020;-27
2023/09/06 11:13:12;;;;;;;5.50;5.00;;;;;;;28.16;34.93;96587.56;5083145;28;20032;-27
2023/09/06 11:15:39;;;;;;;5.13;4.63;;;;;;;28.14;35.59;96584.56;5087138;28;20020;-27
2023/09/06 11:18:05;;;;;;;6.88;4.68;;;;;;;28.20;35.50;96584.44;5086687;28;20024;-27
2023/09/06 11:20:34;;;;;;;6.70;4.72;;;;;;;28.29;34.87;96586.78;5081719;28;20024;-26
2023/09/06 11:23:01;;;;;;;5.90;5.13;;;;;;;28.12;35.23;96573.19;5082765;28;20099;-27
2023/09/06 11:25:28;;;;;;;5.32;4.82;;;;;;;28.21;35.06;96569.97;5083775;28;20032;-26
2023/09/06 11:27:58;;;;;;;5.78;5.20;;;;;;;28.21;35.00;96561.59;5082497;28;20051;-27
2023/09/06 11:30:26;;;;;;;5.55;4.50;;;;;;;28.20;35.32;96568.47;5082658;28;20038;-27
2023/09/06 11:32:57;;;;;;;5.03;4.50;;;;;;;28.20;35.27;96560.09;5082402;28;20027;-28
2023/09/06 11:35:33;;;;;;;5.57;5.07;;;;;;;28.28;34.99;96565.03;5083010;28;20060;-28